Flight Track Log - Related Links

Times and Time Zones

All times are in EDT time to prevent confusion due to time zone crossing. See the EGF3401 flight status page for this flight to view local times or setup timezone preferences in your user account.

Time Position Orientation Groundspeed Altitude Reporting Facility
EDT Latitude Longitude Course Direction KTS MPH feet Rate Location/Type
Fri 07:52:53 PM 35.7850 -84.0286 264° West 164 189 2,800  Level Atlanta Center
Fri 07:53:53 PM 35.7808 -84.0925 265° West 171 197 5,200 2,400 Climbing Atlanta Center
Fri 07:54:00 PM 35.7833 -84.1947 270° West  Level FlightAware Approximate
Fri 07:54:53 PM 35.7744 -84.1719 264° West 208 239 7,600  Level Atlanta Center
Fri 07:55:00 PM 35.7801 -84.3012 257° West  Level FlightAware Approximate
Fri 07:55:53 PM 35.7681 -84.2536 265° West 232 267 10,300  Level Atlanta Center
Fri 07:56:00 PM 35.7611 -84.4055 257° West  Level FlightAware Approximate
Fri 07:56:53 PM 35.7597 -84.3433 263° West 255 293 12,600  Level Atlanta Center
Fri 07:57:00 PM 35.7464 -84.5107 264° West  Level FlightAware Approximate
Fri 07:57:53 PM 35.7511 -84.4378 264° West 271 312 14,700  Level Atlanta Center
Fri 07:58:00 PM 35.7375 -84.6170 264° West  Level FlightAware Approximate
Fri 07:58:54 PM 35.7422 -84.5350 264° West 281 323 16,000  Level Atlanta Center
Fri 07:59:53 PM 35.7314 -84.6372 263° West 293 337 17,500 1,412 Climbing Atlanta Center
Fri 08:00:53 PM 35.7247 -84.7422 266° West 300 345 18,800 1,400 Climbing Atlanta Center
Fri 08:01:53 PM 35.7156 -84.8469 264° West 311 358 20,300 1,433 Climbing Atlanta Center
Fri 08:03:53 PM 35.6967 -85.0453 263° West 305 351 23,100 1,367 Climbing Memphis Center
Fri 08:04:53 PM 35.6864 -85.1481 263° West 305 351 24,400 1,150 Climbing Memphis Center
Fri 08:05:53 PM 35.6783 -85.2533 265° West 311 358 25,400 1,000 Climbing Memphis Center
Fri 08:06:53 PM 35.6661 -85.3642 262° West 317 365 26,400 1,000 Climbing Memphis Center
Fri 08:07:53 PM 35.6578 -85.4692 264° West 317 365 27,400 950 Climbing Memphis Center
Fri 08:08:53 PM 35.6453 -85.5797 262° West 317 365 28,300 950 Climbing Memphis Center
Fri 08:09:53 PM 35.6347 -85.6853 263° West 317 365 29,300 1,000 Climbing Memphis Center
Fri 08:10:53 PM 35.6261 -85.7928 264° West 317 365 30,300 1,050 Climbing Memphis Center
Fri 08:11:53 PM 35.6158 -85.9108 264° West 317 365 31,400 950 Climbing Memphis Center
Fri 08:12:53 PM 35.6028 -86.0139 261° West 322 371 32,200 900 Climbing Memphis Center
Fri 08:13:53 PM 35.5922 -86.1242 258° West 328 377 33,200 1,000 Climbing Memphis Center
Fri 08:14:00 PM 35.5865 -86.1313 258° West  Level FlightAware Approximate
Fri 08:14:53 PM 35.5836 -86.2394 265° West 333 383 34,200  Level Memphis Center
Fri 08:15:53 PM 35.5831 -86.3569 270° West 345 397 35,200 900 Climbing Memphis Center
Fri 08:16:53 PM 35.5931 -86.4764 276° West 350 403 36,000 400 Climbing Memphis Center
Fri 08:17:53 PM 35.6031 -86.5958 276° West 350 403 36,000  Level Memphis Center
Fri 08:18:53 PM 35.6092 -86.7283 273° West 355 409 36,000  Level Memphis Center
Fri 08:19:53 PM 35.5917 -86.8467 260° West 355 409 36,000  Level Memphis Center
Fri 08:20:53 PM 35.5761 -86.9597 260° West 349 402 36,000  Level Memphis Center
Fri 08:21:53 PM 35.5583 -87.0750 259° West 349 402 36,000  Level Memphis Center
Fri 08:22:53 PM 35.5425 -87.1906 260° West 349 402 36,000  Level Memphis Center
Fri 08:23:53 PM 35.5225 -87.3061 258° West 354 407 36,000  Level Memphis Center
Fri 08:24:53 PM 35.5067 -87.4214 260° West 354 407 36,000  Level Memphis Center
Fri 08:25:53 PM 35.4903 -87.5242 259° West 354 407 36,000  Level Memphis Center
Fri 08:26:53 PM 35.4719 -87.6444 259° West 354 407 36,000  Level Memphis Center
Fri 08:27:53 PM 35.4558 -87.7622 261° West 354 407 36,000  Level Memphis Center
Fri 08:28:53 PM 35.4350 -87.8750 257° West 354 407 36,000  Level Memphis Center
Fri 08:29:53 PM 35.4186 -87.9903 260° West 354 407 36,000  Level Memphis Center
Fri 08:30:53 PM 35.4000 -88.1078 259° West 354 407 36,000  Level Memphis Center
Fri 08:31:53 PM 35.3831 -88.2231 260° West 354 407 36,000  Level Memphis Center
Fri 08:32:53 PM 35.3642 -88.3381 259° West 354 407 36,000  Level Memphis Center
Fri 08:33:53 PM 35.3433 -88.4683 259° West 354 407 36,000  Level Memphis Center
Fri 08:34:53 PM 35.3242 -88.5783 258° West 344 396 36,000  Level Memphis Center
Fri 08:35:53 PM 35.3047 -88.6931 258° West 344 396 36,000  Level Memphis Center
Fri 08:36:53 PM 35.2875 -88.8053 259° West 344 396 36,000  Level Memphis Center
Fri 08:37:53 PM 35.2681 -88.9228 259° West 344 396 36,000  Level Memphis Center
Fri 08:38:53 PM 35.2506 -89.0222 258° West 344 396 36,000  Level Memphis Center
Fri 08:39:53 PM 35.2308 -89.1369 258° West 344 396 36,000  Level Memphis Center
Fri 08:40:53 PM 35.2131 -89.2514 259° West 349 402 36,000  Level Memphis Center
Fri 08:41:53 PM 35.1931 -89.3661 258° West 349 402 36,000  Level Memphis Center
Fri 08:42:53 PM 35.1753 -89.4781 259° West 354 407 36,000  Level Memphis Center
Fri 08:43:53 PM 35.1572 -89.5925 259° West 349 402 36,000 50 Level Memphis Center
Fri 08:44:53 PM 35.1369 -89.7094 258° West 349 402 36,100  Climbing Memphis Center
Fri 08:45:53 PM 35.1147 -89.8239 257° West 354 407 36,000 -50 Descending Memphis Center
Fri 08:46:53 PM 35.0964 -89.9408 259° West 354 407 36,000  Level Memphis Center
Fri 08:47:53 PM 35.0758 -90.0550 258° West 354 407 36,000  Level Memphis Center
Fri 08:48:53 PM 35.0553 -90.1719 258° West 354 407 36,000  Level Memphis Center
Fri 08:49:53 PM 35.0322 -90.2861 256° West 354 407 36,000  Level Memphis Center
Fri 08:50:53 PM 35.0114 -90.4128 259° West 354 407 36,000  Level Memphis Center
Fri 08:51:53 PM 34.9883 -90.5319 257° West 360 414 36,000  Level Memphis Center
Fri 08:52:53 PM 34.9675 -90.6486 258° West 360 414 36,000  Level Memphis Center
Fri 08:53:53 PM 34.9461 -90.7650 257° West 355 409 36,000 50 Level Memphis Center
Fri 08:54:53 PM 34.9250 -90.8814 258° West 360 414 36,100  Climbing Memphis Center
Fri 08:55:53 PM 34.9036 -91.0003 258° West 360 414 36,000 -50 Descending Memphis Center
Fri 08:56:53 PM 34.8800 -91.1217 257° West 365 420 36,000  Level Memphis Center
Fri 08:57:53 PM 34.8583 -91.2378 257° West 360 414 36,000  Level Memphis Center
Fri 08:58:53 PM 34.8364 -91.3564 257° West 360 414 36,000 50 Level Memphis Center
Fri 08:59:53 PM 34.8167 -91.4778 259° West 360 414 36,100  Climbing Memphis Center
Fri 09:00:53 PM 34.7947 -91.5861 256° West 360 414 36,000 -50 Descending Memphis Center
Fri 09:01:53 PM 34.7706 -91.7072 256° West 365 420 36,000 50 Level Memphis Center
Fri 09:02:53 PM 34.7464 -91.8231 256° West 365 420 36,100  Climbing Memphis Center
Fri 09:03:53 PM 34.7219 -91.9439 256° West 365 420 36,000 -50 Descending Memphis Center
Fri 09:04:53 PM 34.6975 -92.0622 256° West 365 420 36,000  Level Memphis Center
Fri 09:05:53 PM 34.6747 -92.1856 257° West 370 426 36,000  Level Memphis Center
Fri 09:06:53 PM 34.6439 -92.3058 253° West 375 432 36,000 50 Level Memphis Center
Fri 09:07:53 PM 34.6083 -92.4339 251° West 375 432 36,100  Climbing Memphis Center
Fri 09:08:53 PM 34.5792 -92.5542 254° West 375 432 36,000 -50 Descending Memphis Center
Fri 09:09:53 PM 34.5456 -92.6744 251° West 375 432 36,000  Level Memphis Center
Fri 09:10:53 PM 34.5142 -92.7944 252° West 375 432 36,000  Level Memphis Center
Fri 09:11:53 PM 34.4828 -92.9094 252° West 375 432 36,000  Level Memphis Center
Fri 09:12:53 PM 34.4508 -93.0369 253° West 380 437 36,000  Level Memphis Center
Fri 09:13:53 PM 34.4192 -93.1519 252° West 375 432 36,000  Level Memphis Center
Fri 09:14:53 PM 34.3831 -93.2714 250° West 375 432 36,000  Level Memphis Center
Fri 09:15:53 PM 34.3528 -93.3961 254° West 380 437 36,000  Level Memphis Center
Fri 09:17:27 PM 34.3044 -93.5744 252° West 379 436 36,000 39 Level Fort Worth Center
Fri 09:18:27 PM 34.2683 -93.6892 249° West 379 436 36,100  Climbing Fort Worth Center
Fri 09:19:27 PM 34.2322 -93.8089 250° West 379 436 36,000 -400 Descending Fort Worth Center
Fri 09:20:27 PM 34.1958 -93.9258 249° West 379 436 35,300 -850 Descending Fort Worth Center
Fri 09:21:27 PM 34.1594 -94.0428 249° West 374 430 34,300 -1,450 Descending Fort Worth Center
Fri 09:22:27 PM 34.1208 -94.1647 249° West 379 436 32,400 -1,900 Descending Fort Worth Center
Fri 09:23:27 PM 34.0822 -94.2889 249° West 384 442 30,500 -1,450 Descending Fort Worth Center
Fri 09:24:27 PM 34.0417 -94.4183 249° West 404 465 29,500 -1,000 Descending Fort Worth Center
Fri 09:25:27 PM 34.0008 -94.5500 250° West 416 479 28,500 -1,000 Descending Fort Worth Center
Fri 09:26:27 PM 33.9561 -94.6867 249° West 422 486 27,500 -1,000 Descending Fort Worth Center
Fri 09:27:27 PM 33.9128 -94.8156 248° West 422 486 26,500 -1,000 Descending Fort Worth Center
Fri 09:28:27 PM 33.8717 -94.9494 250° West 427 491 25,500 -950 Descending Fort Worth Center
Fri 09:29:27 PM 33.8303 -95.0831 250° West 427 491 24,600 -750 Descending Fort Worth Center
Fri 09:30:27 PM 33.7869 -95.2142 248° West 427 491 24,000 -300 Descending Fort Worth Center
Fri 09:31:27 PM 33.7431 -95.3453 248° West 427 491 24,000  Level Fort Worth Center
Fri 09:32:27 PM 33.7014 -95.4761 249° West 432 497 24,000  Level Fort Worth Center
Fri 09:33:27 PM 33.6597 -95.6217 251° West 432 497 24,000  Level Fort Worth Center
Fri 09:34:27 PM 33.6114 -95.7497 246° West 427 491 24,000  Level Fort Worth Center
Fri 09:35:27 PM 33.5692 -95.8803 249° West 427 491 24,000  Level Fort Worth Center
Fri 09:36:27 PM 33.5289 -96.0106 250° West 427 491 24,000 -900 Level Fort Worth Center
Fri 09:37:27 PM 33.4864 -96.1358 248° West 420 483 22,200 -2,250 Descending Fort Worth Center
Fri 09:38:27 PM 33.4481 -96.2483 248° West 413 475 19,500 -2,700 Descending Fort Worth Center
Fri 09:39:27 PM 33.4053 -96.3783 249° West 391 450 16,800 -2,250 Descending Fort Worth Center
Fri 09:40:27 PM 33.3453 -96.4636 230° Southwest 381 438 15,000 -2,150 Descending Fort Worth Center
Fri 09:41:27 PM 33.2606 -96.5639 225° Southwest 381 438 12,500 -2,000 Descending Fort Worth Center
Fri 09:42:27 PM 33.1922 -96.6464 225° Southwest 367 422 11,000 -750 Descending Fort Worth Center
Fri 09:43:27 PM 33.1300 -96.7214 225° Southwest 362 417 11,000  Level Fort Worth Center
Fri 09:44:27 PM 33.0511 -96.8111 224° Southwest 357 411 11,000  Level Fort Worth Center
Fri 09:45:39 PM 32.9833 -96.8833 222° Southwest 247 284 11,000 -286 Level Dallas / Fort Worth TRACON
Fri 09:46:33 PM 32.9333 -96.9000 196° South 247 284 10,400 -1,263 Descending Dallas / Fort Worth TRACON
Fri 09:47:33 PM 32.8500 -96.9000 180° South 270 311 8,600 -1,524 Descending Dallas / Fort Worth TRACON
Fri 09:48:39 PM 32.7833 -96.9000 180° South 253 291 7,200 -1,150 Descending Dallas / Fort Worth TRACON
Fri 09:49:33 PM 32.7333 -96.9167 196° South 221 254 6,300 -1,140 Descending Dallas / Fort Worth TRACON
Fri 09:50:40 PM 32.7000 -96.9833 239° Southwest 194 223 4,900 -1,276 Descending Dallas / Fort Worth TRACON
Fri 09:51:40 PM 32.7000 -97.0500 270° West 187 215 3,600 -1,000 Descending Dallas / Fort Worth TRACON
Fri 09:52:34 PM 32.7500 -97.0500 360° North 157 181 3,000 -667 Descending Dallas / Fort Worth TRACON

Login

Don't have an account? Register now (free) for customized features, flight alerts, and more!